HKML

Malindi Airport

Malindi, Kenya
METAR HKML 171400Z 18013KT 9999 FEW023 BKN090 26/21 Q1015
Observed Flight Rules
Aug-17 @ 14:00 UTC (58 minutes ago) Visual Flight Rules
Wind Visibility Clouds
180° at 13 knots 10,000+ meters
  • Few at 2,300' AGL
  • Broken at 9,000' AGL
Temperatures Readings
Current 26°C / 79°F
Dewpoint 21°C / 70°F
Humidity 74%
Altimeter 29.97" Hg
Pressure 1015 hPa
Elevation 23
METAR HKML 171400Z 18013KT 9999 FEW023 BKN090 26/21 Q1015
Observed Flight Rules
Aug-17 @ 14:00 UTC
(58 minutes ago)
VFR
Wind Visibility
180° at 13 knots 10,000+ meters
Clouds
  • Few at 2,300' AGL
  • Broken at 9,000' AGL
Temperature Dewpoint
26°C / 79°F 21°C / 70°F
Humidity Altimeter Pressure
74% 29.97" Hg 1015 hPa